Time;durP1;ratioP1;P1;durP2;ratioP2;P2;SDS_P1;SDS_P2;PMS_P1;PMS_P2;Temp;Humidity;BMP_temperature;BMP_pressure;BME280_temperature;BME280_humidity;BME280_pressure;Samples;Min_cycle;Max_cycle;Signal;HPM_P1;HPM_P2
2022/10/19 00:02:49;;;;;;;6.50;2.47;;;;;;;15.98;72.54;97620.41;6308289;22;20019;-81
2022/10/19 00:08:37;;;;;;;9.45;3.08;;;;;;;15.87;70.24;97624.38;6307657;22;20019;-81
2022/10/19 00:11:32;;;;;;;7.25;3.40;;;;;;;15.79;70.56;97624.53;6306098;22;20458;-80
2022/10/19 00:14:15;;;;;;;6.35;3.60;;;;;;;15.76;70.93;97622.28;6308487;22;20419;-80
2022/10/19 00:16:49;;;;;;;5.75;3.25;;;;;;;15.74;70.98;97626.91;6308178;22;20022;-80
2022/10/19 00:19:22;;;;;;;4.03;3.63;;;;;;;15.74;70.87;97626.91;6281221;22;20098;-80
2022/10/19 00:21:54;;;;;;;7.38;3.60;;;;;;;15.77;71.24;97626.53;6307817;22;20018;-80
2022/10/19 00:24:31;;;;;;;5.53;3.08;;;;;;;15.85;72.04;97623.75;6308623;22;20033;-80
2022/10/19 00:27:00;;;;;;;4.55;3.90;;;;;;;15.85;70.81;97615.88;6307751;22;20418;-81
2022/10/19 00:29:33;;;;;;;7.18;4.13;;;;;;;15.79;70.66;97620.09;6307903;22;20068;-80
2022/10/19 00:32:03;;;;;;;4.68;3.95;;;;;;;15.75;70.47;97615.41;6307662;22;20019;-80
2022/10/19 00:34:49;;;;;;;5.82;4.20;;;;;;;15.70;70.86;97620.34;6307101;22;20023;-80
2022/10/19 00:37:41;;;;;;;5.63;3.90;;;;;;;15.64;71.25;97614.84;6284797;22;20033;-80
2022/10/19 00:40:20;;;;;;;7.85;4.40;;;;;;;15.61;71.26;97615.25;6312111;22;20027;-81
2022/10/19 00:42:56;;;;;;;11.65;3.38;;;;;;;15.60;71.92;97610.16;6310639;22;20019;-80
2022/10/19 00:45:27;;;;;;;7.63;3.95;;;;;;;15.68;72.49;97622.34;6308905;22;20051;-80
2022/10/19 00:47:58;;;;;;;4.93;3.42;;;;;;;15.70;70.96;97622.97;6307667;22;20053;-79
2022/10/19 00:50:33;;;;;;;6.53;4.15;;;;;;;15.64;70.48;97629.84;6306721;22;20019;-80
2022/10/19 00:53:06;;;;;;;5.38;3.95;;;;;;;15.59;70.54;97635.66;6306737;22;20086;-80
2022/10/19 00:55:39;;;;;;;7.53;4.05;;;;;;;15.55;70.71;97634.41;6280740;22;20027;-80
2022/10/19 00:58:10;;;;;;;9.48;4.25;;;;;;;15.49;70.91;97639.59;6307660;22;20072;-80
2022/10/19 01:00:42;;;;;;;9.02;4.78;;;;;;;15.43;70.83;97636.69;6306832;22;20018;-80
2022/10/19 01:03:14;;;;;;;5.65;4.72;;;;;;;15.38;70.88;97636.47;6307193;22;20035;-80
2022/10/19 01:05:46;;;;;;;11.27;5.47;;;;;;;15.36;71.39;97641.09;6307473;22;20015;-80
2022/10/19 01:08:17;;;;;;;7.95;4.65;;;;;;;15.35;70.92;97638.63;6307440;22;20019;-80
2022/10/19 01:10:57;;;;;;;8.45;4.70;;;;;;;15.32;71.16;97642.44;6307191;22;20097;-80
2022/10/19 01:13:37;;;;;;;;;;;;;;;15.35;70.98;97638.63;6307913;22;20019;-80
2022/10/19 01:16:19;;;;;;;4.90;4.40;;;;;;;15.27;70.94;97636.13;6307341;22;20293;-80
2022/10/19 01:18:59;;;;;;;5.65;3.13;;;;;;;15.30;71.62;97630.50;6307289;22;20023;-80
2022/10/19 01:21:35;;;;;;;5.75;3.83;;;;;;;15.33;70.63;97635.41;6307654;22;20015;-80
2022/10/19 01:24:37;;;;;;;5.07;3.08;;;;;;;15.39;70.94;97638.09;6307228;22;20019;-80
2022/10/19 01:27:42;;;;;;;3.80;2.75;;;;;;;15.42;70.18;97629.81;6307228;22;20019;-80
2022/10/19 01:30:29;;;;;;;7.07;3.25;;;;;;;15.37;69.76;97626.94;6307150;22;20094;-80
2022/10/19 01:33:15;;;;;;;4.78;3.10;;;;;;;15.39;70.26;97634.63;6307532;22;20019;-80
2022/10/19 01:35:52;;;;;;;4.88;2.85;;;;;;;15.47;71.16;97631.88;6306612;22;20027;-80
2022/10/19 01:38:30;;;;;;;4.05;3.65;;;;;;;15.45;69.59;97632.06;6307012;22;20354;-80
2022/10/19 01:44:15;;;;;;;7.72;3.47;;;;;;;15.28;70.28;97628.06;6307580;22;20019;-80
2022/10/19 01:47:00;;;;;;;6.05;3.40;;;;;;;15.28;69.91;97632.50;6307625;22;20015;-81
2022/10/19 01:49:45;;;;;;;6.07;3.88;;;;;;;15.20;70.02;97621.09;6304619;22;20023;-81
2022/10/19 01:52:27;;;;;;;5.25;4.10;;;;;;;15.13;70.49;97622.84;6321211;22;20011;-79
2022/10/19 01:57:57;;;;;;;6.00;4.60;;;;;;;15.18;70.50;97620.47;6308259;22;20015;-80
2022/10/19 02:00:29;;;;;;;5.03;4.47;;;;;;;15.18;70.37;97614.41;6307343;22;20027;-80
2022/10/19 02:03:02;;;;;;;20.83;4.82;;;;;;;15.18;70.94;97606.53;6309762;22;20027;-80
2022/10/19 02:05:39;;;;;;;6.95;4.05;;;;;;;15.21;71.11;97609.59;6309737;22;20077;-81
2022/10/19 02:08:23;;;;;;;5.57;4.07;;;;;;;15.22;70.61;97613.03;6310753;22;20076;-80
2022/10/19 02:11:07;;;;;;;5.15;3.67;;;;;;;15.23;70.93;97604.16;6284465;22;20027;-80
2022/10/19 02:13:51;;;;;;;6.68;5.25;;;;;;;15.20;70.84;97605.34;6309444;22;20074;-81
2022/10/19 02:16:45;;;;;;;5.47;3.92;;;;;;;15.23;71.19;97597.06;6309267;22;20019;-81
2022/10/19 02:19:41;;;;;;;3.75;3.35;;;;;;;15.34;73.18;97590.50;6309402;22;20019;-80
2022/10/19 02:22:21;;;;;;;3.70;3.38;;;;;;;15.39;71.73;97584.69;6284082;22;20058;-81
2022/10/19 02:25:09;;;;;;;3.60;3.30;;;;;;;15.36;71.47;97582.44;6309238;22;20094;-80
2022/10/19 02:27:50;;;;;;;4.03;3.05;;;;;;;15.39;72.56;97576.78;6309096;22;20016;-81
2022/10/19 02:50:24;;;;;;;5.28;4.20;;;;;;;15.36;70.59;97553.53;6309399;22;20530;-80
2022/10/19 02:52:53;;;;;;;5.90;4.07;;;;;;;15.27;70.62;97550.22;6309437;22;20019;-80
2022/10/19 02:55:21;;;;;;;7.45;4.28;;;;;;;15.23;70.78;97551.59;6309184;22;20037;-81
2022/10/19 02:57:49;;;;;;;3.55;3.25;;;;;;;15.25;72.01;97553.00;6308851;22;20062;-81
2022/10/19 03:00:17;;;;;;;5.57;4.43;;;;;;;15.28;71.04;97558.91;6308834;22;20109;-81
2022/10/19 03:02:47;;;;;;;6.72;4.20;;;;;;;15.24;71.04;97550.59;6308930;22;20524;-79
2022/10/19 03:05:15;;;;;;;8.80;5.10;;;;;;;15.20;71.00;97552.78;6308838;22;20011;-80
2022/10/19 03:07:43;;;;;;;7.47;4.80;;;;;;;15.18;71.35;97541.63;6309222;22;20047;-80
2022/10/19 03:10:12;;;;;;;6.18;5.03;;;;;;;15.21;71.21;97543.88;6309257;22;20098;-80
2022/10/19 03:12:40;;;;;;;7.05;5.20;;;;;;;15.22;71.17;97548.16;6308370;22;20019;-80
2022/10/19 03:15:10;;;;;;;8.73;4.40;;;;;;;15.24;71.46;97543.50;6308902;22;20011;-81
2022/10/19 03:17:38;;;;;;;4.70;4.05;;;;;;;15.32;71.64;97544.38;6308825;22;20022;-80
2022/10/19 03:20:07;;;;;;;8.23;5.13;;;;;;;15.39;71.59;97540.81;6309025;22;20026;-80
2022/10/19 03:22:35;;;;;;;4.85;4.38;;;;;;;15.48;72.01;97538.03;6308774;22;20015;-81
2022/10/19 03:25:03;;;;;;;4.53;3.75;;;;;;;15.51;71.82;97537.69;6309444;22;20351;-81
2022/10/19 03:27:33;;;;;;;6.05;4.78;;;;;;;15.53;71.17;97541.75;6309244;22;20065;-81
2022/10/19 03:30:01;;;;;;;8.40;4.95;;;;;;;15.52;70.87;97534.84;6308798;22;20022;-81
2022/10/19 03:32:29;;;;;;;6.68;4.80;;;;;;;15.49;70.67;97540.50;6312059;22;20015;-80
2022/10/19 03:38:02;;;;;;;4.82;3.92;;;;;;;15.57;72.52;97547.44;6309060;22;20022;-80
2022/10/19 03:43:36;;;;;;;7.90;5.38;;;;;;;15.66;70.88;97541.03;6308436;22;20015;-81
2022/10/19 03:46:13;;;;;;;6.47;4.90;;;;;;;15.63;71.30;97542.22;6308362;22;20038;-81
2022/10/19 03:48:57;;;;;;;6.00;4.70;;;;;;;15.64;71.22;97538.59;6308024;22;20027;-80
2022/10/19 03:51:47;;;;;;;5.85;4.63;;;;;;;15.66;72.08;97538.41;6308278;22;20023;-81
2022/10/19 04:00:26;;;;;;;11.45;8.77;;;;;;;15.72;72.48;97539.47;6306389;22;20049;-80
2022/10/19 04:03:04;;;;;;;10.73;8.02;;;;;;;15.75;72.53;97539.91;6308626;22;20469;-81
2022/10/19 04:05:34;;;;;;;10.05;8.40;;;;;;;15.77;72.31;97531.84;6308447;22;20094;-80
2022/10/19 04:08:04;;;;;;;9.95;8.95;;;;;;;15.81;72.43;97522.56;6308007;22;20019;-80
2022/10/19 04:10:38;;;;;;;10.38;9.02;;;;;;;15.81;72.18;97528.63;6281859;22;20080;-80
2022/10/19 04:13:14;;;;;;;11.05;8.95;;;;;;;15.78;72.21;97534.25;6281231;22;20019;-80
2022/10/19 04:16:10;;;;;;;10.48;8.68;;;;;;;15.77;72.67;97537.09;6306550;22;20042;-80
2022/10/19 04:19:22;;;;;;;9.90;8.50;;;;;;;15.74;72.55;97542.72;6308506;22;20470;-81
2022/10/19 04:29:03;;;;;;;10.23;9.10;;;;;;;15.61;72.42;97532.88;6326949;22;20068;-80
2022/10/19 04:31:32;;;;;;;9.43;7.68;;;;;;;15.60;73.17;97526.00;6319418;22;20098;-79
2022/10/19 04:34:00;;;;;;;12.20;9.00;;;;;;;15.60;72.91;97526.81;6308375;22;20088;-79
2022/10/19 04:36:28;;;;;;;11.15;8.25;;;;;;;15.60;72.76;97526.00;6310761;22;20347;-81
2022/10/19 04:38:59;;;;;;;10.52;8.15;;;;;;;15.59;72.89;97532.25;6309379;22;20087;-81
2022/10/19 04:41:44;;;;;;;10.80;8.18;;;;;;;15.61;72.91;97533.72;6308509;22;20026;-80
2022/10/19 04:44:40;;;;;;;10.57;9.13;;;;;;;15.62;72.77;97539.78;6308219;22;20355;-78
2022/10/19 04:47:25;;;;;;;9.77;8.52;;;;;;;15.61;72.80;97538.16;6307655;22;20019;-79
2022/10/19 04:49:54;;;;;;;9.63;8.38;;;;;;;15.62;72.63;97537.16;6306897;22;20023;-80
2022/10/19 04:52:28;;;;;;;9.85;7.75;;;;;;;15.64;72.67;97528.06;6307345;22;20458;-80
2022/10/19 05:11:13;;;;;;;10.80;9.15;;;;;;;15.68;72.74;97551.34;6254787;22;20003;-79
2022/10/19 05:20:30;;;;;;;10.70;9.05;;;;;;;15.62;72.55;97550.31;6326288;22;20011;-82
2022/10/19 05:23:07;;;;;;;10.45;8.50;;;;;;;15.58;73.02;97555.13;6335878;22;20034;-80
2022/10/19 05:25:47;;;;;;;10.85;8.13;;;;;;;15.54;72.75;97548.59;6309318;22;20033;-81
2022/10/19 05:28:26;;;;;;;11.27;7.90;;;;;;;15.50;72.97;97546.56;6304942;22;20004;-79
2022/10/19 05:31:18;;;;;;;9.48;8.05;;;;;;;15.46;73.02;97543.50;6300965;22;20038;-80
2022/10/19 05:33:54;;;;;;;10.98;8.18;;;;;;;15.43;72.97;97547.31;6304931;22;21029;-81
2022/10/19 05:36:36;;;;;;;10.93;8.43;;;;;;;15.42;73.14;97539.63;6305261;22;20008;-83
2022/10/19 05:39:26;;;;;;;11.55;8.60;;;;;;;15.39;73.48;97545.25;6305137;22;20008;-80
2022/10/19 05:42:06;;;;;;;10.70;7.50;;;;;;;15.38;73.35;97541.81;6299070;22;20067;-80
2022/10/19 05:44:41;;;;;;;10.43;7.35;;;;;;;15.40;73.53;97546.88;6305470;22;20083;-80
2022/10/19 05:47:20;;;;;;;12.32;8.38;;;;;;;15.43;73.62;97557.00;6305203;22;20027;-80
2022/10/19 05:50:01;;;;;;;9.32;8.05;;;;;;;15.43;73.37;97554.38;6304821;22;20110;-78
2022/10/19 05:52:39;;;;;;;11.85;8.45;;;;;;;15.44;74.06;97553.41;6305107;22;20000;-79
2022/10/19 05:55:11;;;;;;;11.82;8.05;;;;;;;15.44;73.73;97548.94;6305255;22;20034;-80
2022/10/19 05:57:49;;;;;;;10.20;7.88;;;;;;;15.46;73.50;97554.03;6292384;22;20059;-80
2022/10/19 06:00:30;;;;;;;8.68;7.50;;;;;;;15.46;73.33;97546.13;6280519;22;20000;-80
2022/10/19 06:03:07;;;;;;;9.05;6.97;;;;;;;15.43;73.30;97549.94;6278954;22;20055;-80
2022/10/19 06:05:47;;;;;;;8.38;7.20;;;;;;;15.41;73.21;97543.25;6305168;22;20004;-81
2022/10/19 06:08:25;;;;;;;7.90;6.55;;;;;;;15.40;73.21;97547.69;6305157;22;20018;-80
2022/10/19 06:11:09;;;;;;;7.60;6.65;;;;;;;15.42;73.19;97548.31;6304978;22;20012;-80
2022/10/19 06:13:56;;;;;;;7.60;6.20;;;;;;;15.41;73.06;97551.97;6304481;22;20030;-80
2022/10/19 06:16:37;;;;;;;9.45;6.40;;;;;;;15.40;73.13;97546.88;6305184;22;20015;-79
2022/10/19 06:19:13;;;;;;;8.45;6.50;;;;;;;15.41;73.05;97543.25;6305153;22;20014;-79
2022/10/19 06:21:46;;;;;;;8.65;7.18;;;;;;;15.40;73.17;97541.63;6304955;22;20022;-79
2022/10/19 06:27:12;;;;;;;8.77;6.30;;;;;;;15.44;73.12;97537.63;6302599;22;20015;-80
2022/10/19 06:29:58;;;;;;;8.68;6.43;;;;;;;15.44;73.23;97540.25;6304985;22;20007;-80
2022/10/19 06:32:32;;;;;;;9.02;7.30;;;;;;;15.45;73.29;97534.78;6305632;22;20010;-80
2022/10/19 06:35:14;;;;;;;11.90;7.88;;;;;;;15.44;73.28;97530.53;6319788;22;20033;-81
2022/10/19 06:37:55;;;;;;;8.10;6.45;;;;;;;15.47;73.35;97531.97;6310133;22;19999;-81
2022/10/19 06:40:33;;;;;;;6.75;6.00;;;;;;;15.51;73.59;97538.47;6311788;22;20031;-81
2022/10/19 06:43:14;;;;;;;9.82;7.57;;;;;;;15.55;72.76;97531.03;6336361;22;20031;-83
2022/10/19 06:45:53;;;;;;;8.18;6.53;;;;;;;15.58;72.86;97534.09;6308566;22;20026;-85
2022/10/19 06:48:33;;;;;;;7.47;6.35;;;;;;;15.64;72.93;97532.53;6303809;22;20015;-81
2022/10/19 06:51:12;;;;;;;7.75;6.88;;;;;;;15.70;72.23;97546.72;6307037;22;20019;-81
2022/10/19 06:53:44;;;;;;;8.43;6.03;;;;;;;15.75;72.10;97537.28;6306669;22;20019;-81
2022/10/19 06:56:19;;;;;;;6.68;5.88;;;;;;;15.77;72.07;97543.16;6306743;22;20100;-79
2022/10/19 06:58:58;;;;;;;10.82;6.78;;;;;;;15.79;71.81;97540.34;6281596;22;20003;-80
2022/10/19 07:01:35;;;;;;;6.40;5.80;;;;;;;15.82;71.74;97553.91;6306781;22;20035;-79
2022/10/19 07:04:17;;;;;;;9.13;6.35;;;;;;;15.86;71.82;97557.00;6281281;22;20015;-79
2022/10/19 07:06:50;;;;;;;10.35;7.03;;;;;;;15.89;71.72;97556.59;6299864;22;20016;-79
2022/10/19 07:09:21;;;;;;;7.57;6.57;;;;;;;15.92;71.07;97552.75;6306663;22;20019;-80
2022/10/19 07:12:01;;;;;;;8.50;6.07;;;;;;;15.94;70.96;97554.22;6325903;22;20066;-80
2022/10/19 07:14:38;;;;;;;8.35;6.80;;;;;;;15.92;70.88;97555.41;6325247;22;20047;-81
2022/10/19 07:17:12;;;;;;;10.77;6.30;;;;;;;15.93;71.18;97544.69;6306721;22;20000;-80
2022/10/19 07:19:48;;;;;;;9.10;6.80;;;;;;;15.98;71.01;97547.56;6306661;22;20026;-80
2022/10/19 07:22:34;;;;;;;8.35;6.93;;;;;;;16.04;70.59;97548.59;6305898;22;20023;-79
2022/10/19 07:25:15;;;;;;;7.70;6.90;;;;;;;16.07;70.50;97548.22;6306053;22;20016;-80
2022/10/19 07:27:52;;;;;;;13.50;7.50;;;;;;;16.11;70.44;97552.09;6306356;22;20004;-81
2022/10/19 07:30:33;;;;;;;8.52;6.60;;;;;;;16.11;70.50;97553.91;6301585;22;20004;-79
2022/10/19 07:33:11;;;;;;;7.50;6.72;;;;;;;16.15;70.70;97555.16;6306758;22;20003;-82
2022/10/19 07:35:52;;;;;;;10.80;7.05;;;;;;;16.17;70.39;97563.66;6306216;22;20003;-79
2022/10/19 07:38:28;;;;;;;11.25;7.35;;;;;;;16.13;70.42;97552.69;6306368;22;20075;-80
2022/10/19 07:41:04;;;;;;;9.02;7.63;;;;;;;16.11;70.93;97551.28;6306248;22;20050;-79
2022/10/19 07:43:40;;;;;;;9.40;7.45;;;;;;;16.09;70.22;97553.28;6280538;22;20041;-80
2022/10/19 07:46:28;;;;;;;8.23;6.65;;;;;;;16.09;70.43;97555.91;6306322;22;20050;-80
2022/10/19 07:49:04;;;;;;;8.85;7.07;;;;;;;16.11;70.49;97559.16;6305672;22;20022;-80
2022/10/19 07:51:41;;;;;;;9.57;7.13;;;;;;;16.14;70.36;97553.53;6305968;22;20000;-80
2022/10/19 07:54:12;;;;;;;10.13;6.22;;;;;;;16.22;70.07;97561.25;6305825;22;20042;-79
2022/10/19 07:56:47;;;;;;;8.05;6.50;;;;;;;16.26;69.82;97565.13;6305980;22;20000;-80
2022/10/19 07:59:20;;;;;;;8.95;6.95;;;;;;;16.30;69.68;97560.31;6305779;22;20043;-80
2022/10/19 08:01:55;;;;;;;8.02;6.13;;;;;;;16.32;69.74;97556.47;6305930;22;20060;-79
2022/10/19 08:04:37;;;;;;;7.95;6.28;;;;;;;16.38;69.76;97563.59;6306180;22;20043;-79
2022/10/19 08:07:34;;;;;;;8.63;6.65;;;;;;;16.48;69.17;97563.22;6305975;22;20015;-80
2022/10/19 08:10:07;;;;;;;8.82;6.95;;;;;;;16.51;68.69;97560.22;6305682;22;20033;-80
2022/10/19 08:12:46;;;;;;;8.40;6.57;;;;;;;16.53;68.58;97566.09;6305932;22;20049;-80
2022/10/19 08:15:22;;;;;;;6.27;5.67;;;;;;;16.57;68.86;97554.13;6298565;22;20028;-80
2022/10/19 08:17:54;;;;;;;;;;;;;;;16.70;68.95;97563.91;6280327;22;20235;-80
2022/10/19 08:23:19;;;;;;;6.53;4.97;;;;;;;16.93;68.09;97560.19;6305069;22;20000;-80
2022/10/19 08:26:05;;;;;;;5.70;5.07;;;;;;;17.05;67.17;97561.22;6304136;22;20039;-79
2022/10/19 08:28:46;;;;;;;6.83;4.73;;;;;;;17.15;67.04;97566.13;6289714;22;20003;-79
2022/10/19 08:31:25;;;;;;;4.90;4.20;;;;;;;17.23;66.75;97564.13;6327784;22;20003;-79
2022/10/19 08:33:59;;;;;;;6.75;5.90;;;;;;;17.32;66.37;97567.38;6306731;22;20012;-78
2022/10/19 08:36:34;;;;;;;6.57;5.38;;;;;;;17.44;65.77;97567.56;6305365;22;20011;-81
2022/10/19 08:39:11;;;;;;;7.93;5.90;;;;;;;17.55;65.46;97564.34;6303112;22;20027;-80
2022/10/19 08:42:07;;;;;;;5.65;3.92;;;;;;;17.71;65.95;97566.59;6299871;22;20008;-81
2022/10/19 08:45:06;;;;;;;9.00;5.13;;;;;;;17.79;64.15;97564.75;6290371;22;20205;-80
2022/10/19 08:48:32;;;;;;;4.43;4.00;;;;;;;17.92;64.44;97562.13;6275382;22;20019;-81
2022/10/19 08:51:08;;;;;;;8.18;4.75;;;;;;;18.01;63.46;97552.97;6249223;22;20028;-79
2022/10/19 08:53:54;;;;;;;5.68;4.72;;;;;;;17.97;63.18;97549.13;6274887;22;20008;-79
2022/10/19 08:56:52;;;;;;;5.75;3.97;;;;;;;18.31;63.58;97552.50;6274812;22;20007;-80
2022/10/19 09:02:32;;;;;;;4.78;3.67;;;;;;;18.77;61.25;97559.47;6184506;23;20102;-79
2022/10/19 09:05:23;;;;;;;;;;;;;;;19.05;62.23;97563.63;6165701;23;20026;-79
2022/10/19 09:17:30;;;;;;;3.53;3.22;;;;;;;21.29;54.75;97560.00;6336670;22;20061;-80
2022/10/19 09:20:15;;;;;;;4.03;2.72;;;;;;;21.90;51.83;97561.50;6336565;22;20003;-80
2022/10/19 09:22:58;;;;;;;3.53;3.20;;;;;;;21.65;52.25;97561.72;6336285;22;20067;-81
2022/10/19 09:25:35;;;;;;;5.38;3.70;;;;;;;21.20;52.81;97556.84;6341819;22;20022;-81
2022/10/19 09:31:22;;;;;;;4.22;3.30;;;;;;;21.63;52.54;97558.50;6368155;22;19998;-79
2022/10/19 09:39:53;;;;;;;4.38;2.83;;;;;;;23.84;47.12;97545.84;6336132;22;20023;-79
2022/10/19 09:45:38;;;;;;;3.42;2.60;;;;;;;25.98;41.72;97553.00;6336375;22;20159;-82
2022/10/19 09:48:31;;;;;;;2.05;1.90;;;;;;;26.23;41.04;97545.13;6346732;22;20006;-82
2022/10/19 09:57:23;;;;;;;3.05;2.38;;;;;;;27.06;39.95;97549.72;6334695;22;20009;-80
2022/10/19 10:00:01;;;;;;;2.63;2.42;;;;;;;26.91;39.69;97541.66;6333901;22;20007;-79
2022/10/19 10:09:20;;;;;;;2.45;2.25;;;;;;;28.46;36.67;97543.22;6348513;22;20003;-81
2022/10/19 10:20:39;;;;;;;2.83;2.00;;;;;;;29.88;34.25;97532.69;6365074;22;20028;-80
2022/10/19 10:31:11;;;;;;;1.45;1.35;;;;;;;33.23;29.59;97517.00;6335758;22;20011;-79
2022/10/19 10:34:00;;;;;;;2.65;2.15;;;;;;;34.63;27.51;97518.50;6346807;22;20005;-83
2022/10/19 10:37:08;;;;;;;2.85;1.80;;;;;;;35.91;25.58;97519.09;6338450;22;20019;-85
2022/10/19 10:39:43;;;;;;;1.13;1.02;;;;;;;36.88;23.53;97517.47;6311627;22;20003;-80
2022/10/19 10:44:55;;;;;;;4.05;2.10;;;;;;;37.70;23.13;97504.13;6336663;22;20003;-80
2022/10/19 10:47:42;;;;;;;1.50;1.40;;;;;;;38.03;21.80;97505.22;6369221;22;20002;-80
2022/10/19 10:56:43;;;;;;;2.83;1.15;;;;;;;36.55;23.20;97482.81;6332129;22;20026;-83
2022/10/19 10:59:18;;;;;;;1.65;0.80;;;;;;;35.59;24.14;97482.44;6338298;22;20046;-84
2022/10/19 11:01:58;;;;;;;1.40;1.30;;;;;;;34.14;25.38;97479.03;6339831;22;20446;-83
2022/10/19 11:04:32;;;;;;;1.25;1.20;;;;;;;32.68;27.71;97463.13;6339726;22;20025;-84
2022/10/19 11:07:05;;;;;;;1.65;1.27;;;;;;;31.49;28.42;97471.91;6310323;22;20018;-84
2022/10/19 11:09:36;;;;;;;2.20;1.23;;;;;;;30.55;30.10;97464.69;6307938;22;20027;-82
2022/10/19 11:12:06;;;;;;;1.20;1.10;;;;;;;29.71;31.41;97463.19;6308061;22;20023;-83
2022/10/19 11:14:43;;;;;;;2.03;1.70;;;;;;;29.08;31.98;97458.59;6308236;22;20019;-83
2022/10/19 11:17:18;;;;;;;1.67;1.50;;;;;;;28.59;33.09;97456.78;6308349;22;20019;-82
2022/10/19 11:19:49;;;;;;;2.45;1.67;;;;;;;28.02;33.95;97453.50;6313964;22;20207;-82
2022/10/19 11:22:23;;;;;;;2.15;2.00;;;;;;;27.31;34.71;97452.56;6328977;22;20554;-82
2022/10/19 16:57:53;;;;;;;6.60;5.95;;;;;;;17.90;62.25;97205.19;6274478;22;20056;-81
2022/10/19 17:00:24;;;;;;;7.45;5.35;;;;;;;17.86;62.25;97209.28;6274636;22;20011;-79
2022/10/19 17:02:58;;;;;;;11.13;7.63;;;;;;;17.81;62.41;97211.72;6274743;22;20024;-79
2022/10/19 17:05:33;;;;;;;11.05;7.35;;;;;;;17.75;62.55;97202.03;6274740;22;20237;-80
2022/10/19 17:08:01;;;;;;;9.20;6.60;;;;;;;17.73;62.75;97198.78;6274160;22;20012;-80
2022/10/19 17:10:35;;;;;;;6.68;5.93;;;;;;;17.67;62.70;97211.81;6274452;22;20028;-78
2022/10/19 17:13:06;;;;;;;8.57;6.90;;;;;;;17.61;63.10;97212.66;6274465;22;20015;-80
2022/10/19 17:18:24;;;;;;;10.90;6.40;;;;;;;17.54;62.91;97217.16;6338225;22;20033;-81
2022/10/19 17:33:40;;;;;;;10.13;7.32;;;;;;;17.24;63.79;97220.31;6335383;22;20007;-82
2022/10/19 17:39:04;;;;;;;7.53;5.25;;;;;;;17.15;63.47;97223.41;6365044;22;20522;-79
2022/10/19 17:45:04;;;;;;;7.05;5.40;;;;;;;17.10;63.40;97239.84;6348343;22;20030;-79
2022/10/19 18:53:27;;;;;;;5.65;5.05;;;;;;;16.05;63.69;97214.19;6248586;23;20021;-79
2022/10/19 18:56:25;;;;;;;8.13;5.78;;;;;;;16.02;63.94;97208.50;6247640;23;20017;-81
2022/10/19 19:17:41;;;;;;;5.97;4.10;;;;;;;15.96;63.52;97196.16;6219888;22;20104;-80
2022/10/19 19:20:45;;;;;;;7.10;4.45;;;;;;;15.98;63.59;97199.41;6221588;23;20020;-81
2022/10/19 19:26:45;;;;;;;5.45;4.00;;;;;;;15.99;64.31;97193.94;6214405;23;20009;-80
2022/10/19 19:29:48;;;;;;;4.95;4.40;;;;;;;15.98;63.20;97184.44;6214526;23;20005;-80
2022/10/19 19:32:51;;;;;;;5.93;4.72;;;;;;;15.98;63.41;97178.34;6214855;23;20080;-80
2022/10/19 19:36:04;;;;;;;7.18;4.93;;;;;;;15.96;62.98;97173.31;6214389;23;20109;-81
2022/10/19 19:39:10;;;;;;;10.35;5.93;;;;;;;15.89;62.84;97169.84;6213068;23;20013;-80
2022/10/19 19:42:05;;;;;;;9.88;4.53;;;;;;;15.84;63.06;97165.19;6214451;23;20005;-80
2022/10/19 19:44:48;;;;;;;5.40;4.47;;;;;;;15.86;63.60;97165.00;6214613;23;20032;-82
2022/10/19 19:47:36;;;;;;;5.25;4.32;;;;;;;15.89;62.73;97158.50;6214261;23;20040;-80
2022/10/19 19:50:20;;;;;;;7.63;4.82;;;;;;;15.89;62.87;97155.88;6213897;23;20073;-80
2022/10/19 19:53:18;;;;;;;8.02;5.03;;;;;;;15.84;62.58;97164.38;6214535;23;20084;-80
2022/10/19 19:59:55;;;;;;;7.72;5.10;;;;;;;15.64;62.85;97159.88;6203790;23;20056;-80
2022/10/19 20:03:10;;;;;;;6.32;4.82;;;;;;;15.55;63.11;97155.81;6182478;23;20009;-79
2022/10/19 20:06:26;;;;;;;6.18;5.22;;;;;;;15.44;63.60;97159.03;6183892;23;20044;-80
2022/10/19 20:09:25;;;;;;;8.00;5.63;;;;;;;15.32;63.69;97164.03;6214271;23;20032;-81
2022/10/19 22:57:02;;;;;;;7.63;6.40;;;;;;;14.40;62.82;97089.06;6180811;23;20398;-79
2022/10/19 22:59:30;;;;;;;11.07;7.10;;;;;;;14.38;61.76;97080.59;6155579;23;20521;-79
2022/10/19 23:01:58;;;;;;;9.45;7.55;;;;;;;14.32;61.74;97076.94;6157671;23;20028;-79
2022/10/19 23:04:26;;;;;;;9.27;7.68;;;;;;;14.30;61.80;97075.47;6156943;23;20453;-79
2022/10/19 23:06:54;;;;;;;9.57;6.95;;;;;;;14.33;62.59;97072.50;6157102;23;20100;-79
2022/10/19 23:09:22;;;;;;;10.40;7.40;;;;;;;14.33;61.67;97072.50;6157944;23;20104;-78
2022/10/19 23:11:50;;;;;;;12.48;8.65;;;;;;;14.26;61.42;97071.66;6157022;23;20084;-79
2022/10/19 23:14:20;;;;;;;10.25;7.60;;;;;;;14.23;62.77;97075.44;6159872;23;20032;-79
2022/10/19 23:16:48;;;;;;;9.18;6.85;;;;;;;14.29;62.87;97081.75;6171055;23;20021;-79
2022/10/19 23:19:15;;;;;;;9.23;7.07;;;;;;;14.32;62.15;97083.97;6167664;23;20021;-79
2022/10/19 23:21:43;;;;;;;10.02;7.07;;;;;;;14.27;62.09;97081.94;6157582;23;20025;-78
2022/10/19 23:24:11;;;;;;;10.80;7.90;;;;;;;14.23;61.55;97075.44;6157161;23;20026;-78
2022/10/19 23:26:39;;;;;;;11.13;6.93;;;;;;;14.21;61.90;97080.91;6156926;23;20029;-79
2022/10/19 23:29:07;;;;;;;11.40;8.15;;;;;;;14.20;61.55;97075.84;6156398;23;20021;-79
2022/10/19 23:31:37;;;;;;;8.57;6.80;;;;;;;14.24;62.94;97078.91;6157158;23;20021;-79
2022/10/19 23:34:05;;;;;;;10.32;8.10;;;;;;;14.20;61.45;97073.22;6157019;23;20026;-79
2022/10/19 23:36:35;;;;;;;11.65;8.60;;;;;;;14.09;61.23;97060.66;6156585;23;20029;-79
2022/10/19 23:39:04;;;;;;;9.13;7.32;;;;;;;14.01;61.39;97054.56;6156428;23;20405;-79
2022/10/19 23:41:33;;;;;;;11.07;8.75;;;;;;;13.95;61.48;97051.84;6156406;23;20021;-79
2022/10/19 23:44:02;;;;;;;12.05;7.32;;;;;;;13.94;62.25;97052.88;6156419;23;20017;-79
2022/10/19 23:46:31;;;;;;;10.13;7.35;;;;;;;13.96;62.57;97050.88;6155869;23;20017;-79
2022/10/19 23:49:02;;;;;;;12.43;7.40;;;;;;;14.03;62.95;97067.47;6156013;23;20018;-78
2022/10/19 23:51:31;;;;;;;9.45;7.10;;;;;;;14.07;62.01;97054.78;6156607;23;20014;-79
2022/10/19 23:54:00;;;;;;;11.77;8.85;;;;;;;14.09;61.64;97050.16;6156369;23;20068;-79
2022/10/19 23:56:30;;;;;;;11.40;8.13;;;;;;;14.10;61.36;97049.13;6156789;23;20084;-79
2022/10/19 23:58:59;;;;;;;9.10;7.43;;;;;;;14.10;61.01;97049.97;6156218;23;20532;-79
